createdAt,value
2022-08-27T00:03:31.080Z,19.37
2022-08-27T00:08:32.487Z,19.38
2022-08-27T00:13:33.941Z,19.33
2022-08-27T00:18:36.094Z,19.39
2022-08-27T00:23:38.551Z,19.26
2022-08-27T00:28:40.469Z,19.32
2022-08-27T00:33:42.622Z,19.32
2022-08-27T00:38:44.177Z,19.11
2022-08-27T00:43:57.160Z,19.24
2022-08-27T00:49:05.073Z,19.24
2022-08-27T00:54:08.209Z,19.21
2022-08-27T00:59:14.829Z,19.29
2022-08-27T01:04:16.271Z,19.24
2022-08-27T01:09:18.137Z,19.07
2022-08-27T01:14:19.691Z,19.02
2022-08-27T01:19:35.707Z,19.05
2022-08-27T01:24:42.371Z,18.99
2022-08-27T01:29:46.619Z,19.01
2022-08-27T01:34:48.613Z,18.98
2022-08-27T01:39:50.076Z,18.76
2022-08-27T01:44:59.175Z,18.83
2022-08-27T01:50:01.423Z,18.95
2022-08-27T01:55:04.470Z,18.94
2022-08-27T02:00:18.253Z,18.70
2022-08-27T02:05:20.567Z,18.88
2022-08-27T02:10:32.829Z,18.76
2022-08-27T02:15:35.685Z,18.67
2022-08-27T02:20:37.388Z,18.79
2022-08-27T02:25:39.243Z,18.78
2022-08-27T02:30:41.016Z,18.72
2022-08-27T02:35:44.213Z,18.73
2022-08-27T02:40:45.633Z,18.74
2022-08-27T02:45:47.425Z,18.78
2022-08-27T02:50:48.887Z,18.79
2022-08-27T02:55:52.062Z,18.79
2022-08-27T03:00:53.508Z,18.75
2022-08-27T03:05:56.044Z,18.68
2022-08-27T03:10:57.785Z,18.75
2022-08-27T03:15:59.304Z,18.76
2022-08-27T03:21:01.459Z,18.64
2022-08-27T03:26:05.131Z,18.36
2022-08-27T03:31:13.394Z,18.67
2022-08-27T03:36:14.846Z,18.59
2022-08-27T03:41:17.934Z,18.57
2022-08-27T03:46:20.725Z,18.54
2022-08-27T03:51:22.981Z,18.48
2022-08-27T03:56:24.383Z,18.40
2022-08-27T04:01:26.375Z,18.60
2022-08-27T04:06:28.197Z,18.55
2022-08-27T04:11:29.629Z,18.59
2022-08-27T04:16:33.652Z,18.52
2022-08-27T04:21:35.766Z,18.46
2022-08-27T04:26:39.850Z,18.52
2022-08-27T04:31:41.359Z,18.36
2022-08-27T04:36:43.064Z,18.36
2022-08-27T04:41:44.477Z,18.30
2022-08-27T04:46:49.368Z,18.36
2022-08-27T04:51:51.074Z,18.32
2022-08-27T04:56:52.702Z,18.33
2022-08-27T05:01:54.292Z,18.35
2022-08-27T05:06:56.503Z,18.36
2022-08-27T05:11:58.439Z,18.39
2022-08-27T05:17:00.443Z,18.21
2022-08-27T05:22:02.105Z,18.27
2022-08-27T05:27:04.210Z,17.93
2022-08-27T05:32:05.773Z,18.24
2022-08-27T05:37:07.253Z,18.27
2022-08-27T05:42:08.636Z,18.17
2022-08-27T05:47:10.321Z,18.31
2022-08-27T05:52:11.993Z,18.31
2022-08-27T05:57:13.636Z,18.38
2022-08-27T06:02:15.133Z,18.30
2022-08-27T06:07:16.725Z,18.11
2022-08-27T06:12:18.193Z,18.26
2022-08-27T06:17:19.692Z,18.35
2022-08-27T06:22:21.258Z,18.34
2022-08-27T06:27:22.728Z,18.41
2022-08-27T06:32:25.977Z,18.39
2022-08-27T06:37:27.738Z,18.44
2022-08-27T06:42:29.896Z,18.45
2022-08-27T06:47:32.439Z,18.36
2022-08-27T06:52:34.187Z,18.45
2022-08-27T06:57:35.605Z,18.46
2022-08-27T07:02:38.644Z,18.57
2022-08-27T07:07:46.779Z,18.58
2022-08-27T07:12:50.305Z,18.52
2022-08-27T07:17:51.725Z,18.57
2022-08-27T07:22:54.521Z,18.62
2022-08-27T07:27:56.681Z,18.61
2022-08-27T07:32:58.065Z,18.67
2022-08-27T07:37:59.503Z,18.65
2022-08-27T07:43:19.363Z,18.62
2022-08-27T07:48:20.958Z,18.70
2022-08-27T07:53:22.552Z,18.75
2022-08-27T07:58:23.966Z,18.73
2022-08-27T08:03:26.027Z,18.75
2022-08-27T08:08:27.620Z,18.78
2022-08-27T08:13:30.697Z,18.84
2022-08-27T08:18:33.130Z,18.81
2022-08-27T08:23:35.158Z,19.01
2022-08-27T08:28:40.809Z,19.07
2022-08-27T08:33:42.317Z,19.09
2022-08-27T08:38:45.418Z,19.26
2022-08-27T08:43:51.439Z,19.29
2022-08-27T08:48:59.058Z,19.36
2022-08-27T08:54:30.945Z,19.54
2022-08-27T08:59:38.029Z,19.54
2022-08-27T09:04:39.529Z,19.74
2022-08-27T09:09:59.293Z,19.78
2022-08-27T09:15:14.126Z,19.86
2022-08-27T09:20:20.050Z,19.99
2022-08-27T09:25:28.287Z,20.20
2022-08-27T09:30:33.721Z,20.12
2022-08-27T09:35:44.713Z,20.20
2022-08-27T09:40:50.362Z,20.33
2022-08-27T09:45:58.260Z,20.37
2022-08-27T09:51:02.519Z,20.46
2022-08-27T09:56:07.738Z,20.53
2022-08-27T10:01:18.302Z,20.54
2022-08-27T10:06:28.183Z,20.71
2022-08-27T10:11:35.969Z,20.89
2022-08-27T10:16:57.901Z,21.27
2022-08-27T10:22:11.591Z,21.35
2022-08-27T10:27:18.881Z,21.54
2022-08-27T10:32:38.914Z,21.79
2022-08-27T10:38:08.255Z,21.78
2022-08-27T10:43:31.505Z,21.86
2022-08-27T10:48:44.651Z,21.83
2022-08-27T10:54:18.385Z,22.15
2022-08-27T10:59:28.676Z,22.16
2022-08-27T11:04:39.359Z,22.20
2022-08-27T11:09:56.203Z,22.35
2022-08-27T11:15:02.886Z,22.49
2022-08-27T11:20:09.047Z,22.45
2022-08-27T11:25:22.775Z,22.71
2022-08-27T11:30:34.663Z,22.70
2022-08-27T11:35:44.549Z,22.55
2022-08-27T11:41:24.938Z,22.65
2022-08-27T11:46:42.047Z,22.75
2022-08-27T11:51:43.541Z,22.70
2022-08-27T11:56:45.151Z,22.68
2022-08-27T12:01:47.333Z,22.52
2022-08-27T12:07:25.023Z,22.56
2022-08-27T12:12:44.499Z,22.59
2022-08-27T12:18:20.698Z,22.56
2022-08-27T12:23:43.853Z,22.60
2022-08-27T12:28:45.282Z,22.74
2022-08-27T12:33:50.222Z,22.76
2022-08-27T12:38:55.354Z,22.74
2022-08-27T12:44:09.266Z,22.96
2022-08-27T12:49:36.946Z,23.04
2022-08-27T12:55:10.890Z,23.18
2022-08-27T13:00:26.253Z,23.14
2022-08-27T13:05:37.745Z,23.31
2022-08-27T13:10:39.171Z,23.23
2022-08-27T13:15:47.160Z,23.37
2022-08-27T13:20:53.538Z,23.26
2022-08-27T13:26:02.836Z,23.36
2022-08-27T13:31:07.166Z,23.36
2022-08-27T13:36:11.369Z,23.47
2022-08-27T13:41:34.780Z,23.43
2022-08-27T13:46:46.646Z,23.47
2022-08-27T13:51:49.039Z,23.44
2022-08-27T13:56:55.001Z,23.49
2022-08-27T14:02:11.717Z,23.57
2022-08-27T14:07:13.501Z,23.58
2022-08-27T14:12:39.918Z,23.50
2022-08-27T14:17:42.143Z,23.45
2022-08-27T14:22:44.635Z,23.43
2022-08-27T14:27:54.429Z,23.55
2022-08-27T14:32:58.386Z,23.62
2022-08-27T14:38:31.571Z,23.58
2022-08-27T14:43:34.521Z,23.49
2022-08-27T14:48:36.855Z,23.56
2022-08-27T14:53:38.310Z,23.46
2022-08-27T14:58:39.995Z,23.36
2022-08-27T15:03:48.142Z,23.31
2022-08-27T15:08:50.628Z,23.21
2022-08-27T15:13:53.068Z,23.30
2022-08-27T15:19:00.862Z,23.17
2022-08-27T15:24:10.509Z,23.18
2022-08-27T15:29:12.046Z,22.95
2022-08-27T15:34:13.507Z,23.15
2022-08-27T15:39:15.019Z,23.13
2022-08-27T15:44:16.906Z,23.10
2022-08-27T15:49:19.015Z,23.16
2022-08-27T15:54:20.481Z,23.13
2022-08-27T15:59:21.932Z,22.95
2022-08-27T16:04:23.459Z,22.94
2022-08-27T16:09:25.120Z,22.95
2022-08-27T16:14:26.559Z,22.91
2022-08-27T16:19:28.328Z,22.95
2022-08-27T16:24:30.008Z,22.87
2022-08-27T16:29:31.495Z,22.79
2022-08-27T16:34:32.939Z,22.72
2022-08-27T16:39:38.689Z,22.72
2022-08-27T16:44:42.295Z,22.72
2022-08-27T16:50:02.384Z,22.77
2022-08-27T16:55:04.315Z,22.68
2022-08-27T17:00:06.396Z,22.72
2022-08-27T17:05:30.718Z,22.50
2022-08-27T17:10:47.442Z,22.56
2022-08-27T17:15:53.122Z,22.26
2022-08-27T17:20:56.405Z,22.28
2022-08-27T17:25:57.922Z,22.45
2022-08-27T17:31:01.319Z,22.34
2022-08-27T17:36:03.207Z,22.36
2022-08-27T17:41:30.672Z,22.13
2022-08-27T17:46:34.973Z,22.17
2022-08-27T17:51:36.677Z,22.31
2022-08-27T17:56:40.029Z,22.08
2022-08-27T18:01:41.619Z,22.15
2022-08-27T18:06:43.554Z,22.08
2022-08-27T18:11:46.232Z,22.09
2022-08-27T18:16:47.709Z,22.11
2022-08-27T18:21:49.439Z,21.87
2022-08-27T18:26:50.953Z,22.03
2022-08-27T18:31:52.400Z,21.99
2022-08-27T18:36:53.832Z,21.81
2022-08-27T18:41:55.344Z,21.75
2022-08-27T18:46:56.764Z,21.65
2022-08-27T18:51:59.206Z,21.76
2022-08-27T18:57:00.678Z,21.75
2022-08-27T19:02:02.839Z,21.56
2022-08-27T19:07:06.360Z,21.33
2022-08-27T19:12:08.011Z,21.36
2022-08-27T19:17:20.108Z,21.47
2022-08-27T19:22:23.250Z,21.40
2022-08-27T19:27:27.444Z,21.42
2022-08-27T19:32:28.967Z,21.44
2022-08-27T19:37:31.420Z,21.30
2022-08-27T19:42:34.710Z,21.35
2022-08-27T19:52:52.578Z,21.35
2022-08-27T19:57:54.062Z,21.25
2022-08-27T20:02:56.205Z,21.22
2022-08-27T20:07:57.602Z,21.29
2022-08-27T20:12:59.475Z,21.27
2022-08-27T20:18:01.270Z,21.18
2022-08-27T20:23:03.734Z,21.24
2022-08-27T20:28:35.353Z,21.01
2022-08-27T20:33:30.427Z,20.92
2022-08-27T20:38:31.897Z,20.68
2022-08-27T20:43:34.107Z,20.74
2022-08-27T20:48:35.855Z,20.81
2022-08-27T20:53:37.323Z,20.80
2022-08-27T20:58:57.292Z,20.63
2022-08-27T21:03:58.848Z,20.54
2022-08-27T21:09:00.382Z,20.35
2022-08-27T21:14:01.843Z,20.32
2022-08-27T21:19:03.362Z,20.46
2022-08-27T21:24:05.098Z,20.14
2022-08-27T21:29:06.615Z,20.03
2022-08-27T21:34:08.558Z,20.14
2022-08-27T21:39:10.542Z,20.15
2022-08-27T21:44:11.970Z,20.04
2022-08-27T21:49:13.436Z,19.89
2022-08-27T21:54:15.015Z,19.78
2022-08-27T21:59:17.776Z,19.78
2022-08-27T22:04:19.226Z,19.71
2022-08-27T22:09:24.799Z,19.50
2022-08-27T22:14:26.927Z,19.39
2022-08-27T22:19:28.397Z,19.37
2022-08-27T22:24:29.777Z,19.11
2022-08-27T22:29:31.551Z,19.44
2022-08-27T22:34:34.779Z,19.20
2022-08-27T22:39:36.809Z,19.31
2022-08-27T22:44:40.401Z,19.25
2022-08-27T22:49:43.299Z,19.36
2022-08-27T22:54:44.767Z,18.70
2022-08-27T22:59:46.207Z,18.91
2022-08-27T23:04:55.864Z,18.80
2022-08-27T23:09:57.642Z,18.95
2022-08-27T23:14:59.074Z,18.86
2022-08-27T23:20:00.478Z,18.76
2022-08-27T23:25:20.667Z,18.66
2022-08-27T23:30:22.889Z,18.61
2022-08-27T23:35:26.468Z,18.69
2022-08-27T23:40:28.004Z,18.70
2022-08-27T23:45:30.193Z,18.66
2022-08-27T23:50:34.036Z,18.42
2022-08-27T23:55:36.440Z,17.95
